Pagrindinis puslapis
METAR-TAF:

METAR-TAF

Oro uostai :

Lemnos, Graikija

platuma: 39-55N, ilguma: 025-14E, Aukštis: 5 m

Dabartinis oras

Ataskaita buvo paskelbta 36 minutes, ne 20:50 UTC
Ramus vėjas
Temperatūra 10°C
Drėgmė 87%
Slėgis 1023 hPa
Matomumas 10 km arba daugiau
nėra debesų žemiau 1500 m ir nėra kamuolinių lietaus debesų

METAR: LGLM 152050Z 00000KT CAVOK 10/08 Q1023

Laikas: 23:26 (21:26 UTC)

Prognozė

Ataskaita buvo paskelbta 1 valandą ir 26 minutes, ne 20:00 UTC
Prognozė galioja nuo 15 metu 21 UTC su 16 metu 06 UTC
Vėjas 6 kt iš Rytų
Matomumas 10 km arba daugiau
Mažai debesys ne aukštis 2000 ft

TAF: LGLM 152000Z 1521/1606 09006KT 9999 FEW020

Orai ataskaitas ir orų prognozės (METAR, TAF).

turimą stotys yra geltonos ir raudonos taškus žemėlapyje.

Perkelti pele per norėdami pamatyti stoties vardą.

Tada spustelėkite, norėdami matyti oro stebėjimo ir prognozės.

Norėdami pakeisti žemėlapį: spustelėkite ant žalios mygtukų su juodo kryžiaus žemyn,; žalią mygtuką su brūkšneliu, jei norite nutolinti; arba žalių rodyklių gretimoms žemėlapius.


METAR-TAF: